createdAt,value
2023-06-09T00:00:27.888Z,82.30
2023-06-09T00:02:56.032Z,82.44
2023-06-09T00:05:25.059Z,82.85
2023-06-09T00:07:56.840Z,83.23
2023-06-09T00:10:24.602Z,83.20
2023-06-09T00:12:52.389Z,82.83
2023-06-09T00:15:20.061Z,83.17
2023-06-09T00:17:48.197Z,82.88
2023-06-09T00:20:16.354Z,83.17
2023-06-09T00:22:44.220Z,83.11
2023-06-09T00:25:13.537Z,83.39
2023-06-09T00:27:41.466Z,83.16
2023-06-09T00:30:09.503Z,83.68
2023-06-09T00:32:37.712Z,84.03
2023-06-09T00:35:05.796Z,84.17
2023-06-09T00:37:33.541Z,84.68
2023-06-09T00:40:01.538Z,84.92
2023-06-09T00:42:31.352Z,85.06
2023-06-09T00:44:58.811Z,84.59
2023-06-09T00:47:27.640Z,84.68
2023-06-09T00:49:55.589Z,84.87
2023-06-09T00:52:23.636Z,84.81
2023-06-09T00:54:53.468Z,84.64
2023-06-09T00:57:20.982Z,84.33
2023-06-09T00:59:48.514Z,84.44
2023-06-09T01:02:16.237Z,84.52
2023-06-09T01:04:50.694Z,84.50
2023-06-09T01:07:40.092Z,85.21
2023-06-09T01:10:25.959Z,86.00
2023-06-09T01:13:03.929Z,85.77
2023-06-09T01:15:37.454Z,85.77
2023-06-09T01:18:10.081Z,85.84
2023-06-09T01:20:57.977Z,85.83
2023-06-09T01:23:50.144Z,85.82
2023-06-09T01:26:20.382Z,85.32
2023-06-09T01:28:49.110Z,85.12
2023-06-09T01:31:17.643Z,85.06
2023-06-09T01:33:46.000Z,84.62
2023-06-09T01:36:14.727Z,85.47
2023-06-09T01:38:43.069Z,85.21
2023-06-09T01:41:11.024Z,84.87
2023-06-09T01:43:38.604Z,85.96
2023-06-09T01:46:06.393Z,85.51
2023-06-09T01:48:52.711Z,86.76
2023-06-09T01:51:30.523Z,87.27
2023-06-09T01:54:05.733Z,87.55
2023-06-09T01:56:38.964Z,87.87
2023-06-09T01:59:09.977Z,87.14
2023-06-09T02:01:39.926Z,87.31
2023-06-09T02:04:09.702Z,87.44
2023-06-09T02:06:37.823Z,87.16
2023-06-09T02:09:06.022Z,87.31
2023-06-09T02:11:33.516Z,87.88
2023-06-09T02:14:01.310Z,84.88
2023-06-09T02:16:28.712Z,85.56
2023-06-09T02:18:57.343Z,86.47
2023-06-09T02:21:24.894Z,86.80
2023-06-09T02:23:52.430Z,85.45
2023-06-09T02:26:21.616Z,86.35
2023-06-09T02:28:49.174Z,87.77
2023-06-09T02:31:17.268Z,87.89
2023-06-09T02:33:44.822Z,88.27
2023-06-09T02:36:14.142Z,88.46
2023-06-09T02:38:41.840Z,88.25
2023-06-09T02:41:09.539Z,87.79
2023-06-09T02:43:36.984Z,86.98
2023-06-09T02:46:05.563Z,86.79
2023-06-09T02:48:33.145Z,87.81
2023-06-09T02:51:00.948Z,88.35
2023-06-09T02:53:29.939Z,88.66
2023-06-09T02:55:59.818Z,89.08
2023-06-09T02:58:32.238Z,89.87
2023-06-09T03:01:00.075Z,89.42
2023-06-09T03:03:30.099Z,88.68
2023-06-09T03:05:59.754Z,88.39
2023-06-09T03:08:28.546Z,89.58
2023-06-09T03:10:56.128Z,90.14
2023-06-09T03:13:23.690Z,89.28
2023-06-09T03:15:54.168Z,89.97
2023-06-09T03:18:22.103Z,90.19
2023-06-09T03:20:52.140Z,90.49
2023-06-09T03:23:21.712Z,91.00
2023-06-09T03:25:52.934Z,91.28
2023-06-09T03:28:21.724Z,91.87
2023-06-09T03:30:49.269Z,91.38
2023-06-09T03:33:19.815Z,91.21
2023-06-09T03:35:49.400Z,91.84
2023-06-09T03:38:18.314Z,92.62
2023-06-09T03:40:45.948Z,92.02
2023-06-09T03:43:13.469Z,91.60
2023-06-09T03:45:41.438Z,90.84
2023-06-09T03:48:10.493Z,90.44
2023-06-09T03:50:39.264Z,90.88
2023-06-09T03:53:07.152Z,91.67
2023-06-09T03:55:34.745Z,91.57
2023-06-09T03:58:03.200Z,91.85
2023-06-09T04:00:30.953Z,91.42
2023-06-09T04:03:01.584Z,90.92
2023-06-09T04:05:29.550Z,90.79
2023-06-09T04:07:58.421Z,90.61
2023-06-09T04:10:26.245Z,90.18
2023-06-09T04:12:54.175Z,89.45
2023-06-09T04:15:21.733Z,89.07
2023-06-09T04:17:52.816Z,88.65
2023-06-09T04:20:25.948Z,88.63
2023-06-09T04:22:55.388Z,89.17
2023-06-09T04:25:29.261Z,89.25
2023-06-09T04:28:04.431Z,88.99
2023-06-09T04:30:35.583Z,89.48
2023-06-09T04:33:06.257Z,88.99
2023-06-09T04:35:33.970Z,88.50
2023-06-09T04:38:04.150Z,88.92
2023-06-09T04:40:33.203Z,88.77
2023-06-09T04:43:03.136Z,89.02
2023-06-09T04:45:36.191Z,88.02
2023-06-09T04:48:09.452Z,89.74
2023-06-09T04:50:38.704Z,90.13
2023-06-09T04:53:08.618Z,91.07
2023-06-09T04:55:46.442Z,92.26
2023-06-09T04:58:16.609Z,91.47
2023-06-09T05:00:44.483Z,91.41
2023-06-09T05:03:14.903Z,88.86
2023-06-09T05:05:43.251Z,88.79
2023-06-09T05:08:10.756Z,88.38
2023-06-09T05:10:38.868Z,87.77
2023-06-09T05:13:06.481Z,87.47
2023-06-09T05:15:35.034Z,86.54
2023-06-09T05:18:02.978Z,84.20
2023-06-09T05:20:30.958Z,85.15
2023-06-09T05:22:58.451Z,82.04
2023-06-09T05:25:26.590Z,83.36
2023-06-09T05:27:54.189Z,82.75
2023-06-09T05:30:21.799Z,82.28
2023-06-09T05:32:49.733Z,81.46
2023-06-09T05:35:18.064Z,81.72
2023-06-09T05:37:53.391Z,80.36
2023-06-09T05:40:24.370Z,77.53
2023-06-09T05:42:51.987Z,78.53
2023-06-09T05:45:19.503Z,77.98
2023-06-09T05:47:47.250Z,75.90
2023-06-09T05:50:14.807Z,74.36
2023-06-09T05:52:42.197Z,71.64
2023-06-09T05:55:09.894Z,70.73
2023-06-09T05:57:38.203Z,71.13
2023-06-09T06:00:09.892Z,71.06
2023-06-09T06:02:41.036Z,68.57
2023-06-09T06:05:09.179Z,70.51
2023-06-09T06:07:37.556Z,68.06
2023-06-09T06:10:06.967Z,68.17
2023-06-09T06:12:34.664Z,69.31
2023-06-09T06:15:03.544Z,67.18
2023-06-09T06:17:32.128Z,68.35
2023-06-09T06:19:59.597Z,69.66
2023-06-09T06:22:27.206Z,70.22
2023-06-09T06:24:54.812Z,70.03
2023-06-09T06:27:22.887Z,69.43
2023-06-09T06:29:50.461Z,69.04
2023-06-09T06:32:18.319Z,67.79
2023-06-09T06:34:46.054Z,66.54
2023-06-09T06:37:13.627Z,65.90
2023-06-09T06:39:41.362Z,65.98
2023-06-09T06:42:08.881Z,65.83
2023-06-09T06:44:53.117Z,65.38
2023-06-09T06:47:21.402Z,66.25
2023-06-09T06:49:48.896Z,65.96
2023-06-09T06:52:16.490Z,66.40
2023-06-09T06:54:43.875Z,67.52
2023-06-09T06:57:11.319Z,67.55
2023-06-09T06:59:38.808Z,67.28
2023-06-09T07:02:06.467Z,67.54
2023-06-09T07:04:33.957Z,67.89
2023-06-09T07:07:01.431Z,68.36
2023-06-09T07:09:29.173Z,67.97
2023-06-09T07:11:57.011Z,66.02
2023-06-09T07:14:24.884Z,67.31
2023-06-09T07:16:52.524Z,66.56
2023-06-09T07:19:20.013Z,66.86
2023-06-09T07:21:48.022Z,67.12
2023-06-09T07:24:15.623Z,67.07
2023-06-09T07:26:43.256Z,66.33
2023-06-09T07:29:10.724Z,66.80
2023-06-09T07:31:38.232Z,67.48
2023-06-09T07:34:07.458Z,66.62
2023-06-09T07:36:36.241Z,65.78
2023-06-09T07:39:05.171Z,66.90
2023-06-09T07:41:32.800Z,66.76
2023-06-09T07:44:00.901Z,64.76
2023-06-09T07:46:28.554Z,65.72
2023-06-09T07:48:56.069Z,65.42
2023-06-09T07:51:23.539Z,64.74
2023-06-09T07:53:51.225Z,65.11
2023-06-09T07:56:18.704Z,65.44
2023-06-09T07:58:46.221Z,65.94
2023-06-09T08:01:13.802Z,65.22
2023-06-09T08:03:41.461Z,64.96
2023-06-09T08:06:09.460Z,64.84
2023-06-09T08:08:38.508Z,64.23
2023-06-09T08:11:06.118Z,64.82
2023-06-09T08:13:33.592Z,62.30
2023-06-09T08:16:01.181Z,63.24
2023-06-09T08:18:28.800Z,62.01
2023-06-09T08:20:56.270Z,61.83
2023-06-09T08:23:24.100Z,62.27
2023-06-09T08:25:51.728Z,61.52
2023-06-09T08:28:19.159Z,61.15
2023-06-09T08:30:46.776Z,61.28
2023-06-09T08:33:14.415Z,61.42
2023-06-09T08:35:41.961Z,61.36
2023-06-09T08:38:09.690Z,60.39
2023-06-09T08:40:37.325Z,61.82
2023-06-09T08:43:06.479Z,61.98
2023-06-09T08:45:35.585Z,62.02
2023-06-09T08:48:05.335Z,61.33
2023-06-09T08:50:33.612Z,62.95
2023-06-09T08:53:01.980Z,62.72
2023-06-09T08:55:29.815Z,62.04
2023-06-09T08:57:57.337Z,62.81
2023-06-09T09:00:25.610Z,61.40
2023-06-09T09:02:53.165Z,61.40
2023-06-09T09:05:20.962Z,63.27
2023-06-09T09:07:48.681Z,64.51
2023-06-09T09:10:16.650Z,62.04
2023-06-09T09:12:52.553Z,62.91
2023-06-09T09:15:24.068Z,63.40
2023-06-09T09:17:51.609Z,63.79
2023-06-09T09:20:19.437Z,60.42
2023-06-09T09:22:51.702Z,59.88
2023-06-09T09:25:23.127Z,58.06
2023-06-09T09:28:06.903Z,59.87
2023-06-09T09:30:41.615Z,60.98
2023-06-09T09:33:10.683Z,59.93
2023-06-09T09:35:45.129Z,59.25
2023-06-09T09:38:15.773Z,57.88
2023-06-09T09:40:48.578Z,57.58
2023-06-09T09:43:16.793Z,58.50
2023-06-09T09:48:31.690Z,56.64
2023-06-09T09:50:59.526Z,55.84
2023-06-09T09:53:27.964Z,56.73
2023-06-09T09:55:57.795Z,55.13
2023-06-09T09:58:34.960Z,55.52
2023-06-09T10:01:07.129Z,57.58
2023-06-09T10:03:36.052Z,57.05
2023-06-09T10:06:07.574Z,57.76
2023-06-09T10:08:35.347Z,55.19
2023-06-09T10:11:04.060Z,54.52
2023-06-09T10:13:31.858Z,55.60
2023-06-09T10:16:01.060Z,54.26
2023-06-09T10:18:28.793Z,54.97
2023-06-09T10:20:57.064Z,55.34
2023-06-09T10:23:24.608Z,55.40
2023-06-09T10:25:53.036Z,53.25
2023-06-09T10:28:21.618Z,52.66
2023-06-09T10:30:51.253Z,54.94
2023-06-09T10:33:35.723Z,55.12
2023-06-09T10:36:10.247Z,53.60
2023-06-09T10:38:46.964Z,54.75
2023-06-09T10:41:34.228Z,52.88
2023-06-09T10:44:42.229Z,55.87
2023-06-09T10:47:10.430Z,55.09
2023-06-09T10:49:42.156Z,52.47
2023-06-09T10:52:46.338Z,51.37
2023-06-09T10:55:16.347Z,52.64
2023-06-09T10:57:44.524Z,54.47
2023-06-09T11:00:18.105Z,56.14
2023-06-09T11:02:50.012Z,56.36
2023-06-09T11:05:20.394Z,56.61
2023-06-09T11:07:53.689Z,57.40
2023-06-09T11:10:21.065Z,57.79
2023-06-09T11:12:51.009Z,56.46
2023-06-09T11:15:18.765Z,55.69
2023-06-09T11:17:48.307Z,56.60
2023-06-09T11:20:19.964Z,56.37
2023-06-09T11:22:50.102Z,57.08
2023-06-09T11:25:20.951Z,57.52
2023-06-09T11:28:08.783Z,57.59
2023-06-09T11:31:00.901Z,57.76
2023-06-09T11:33:46.822Z,57.71
2023-06-09T11:36:22.456Z,56.65
2023-06-09T11:38:51.587Z,56.39
2023-06-09T11:41:23.960Z,54.79
2023-06-09T11:43:56.335Z,55.55
2023-06-09T11:46:24.365Z,55.45
2023-06-09T11:49:04.571Z,56.84
2023-06-09T11:51:57.940Z,53.19
2023-06-09T11:54:44.606Z,53.65
2023-06-09T11:57:15.155Z,53.42
2023-06-09T11:59:46.446Z,52.77
2023-06-09T12:02:18.079Z,53.55
2023-06-09T12:04:47.198Z,53.13
2023-06-09T12:07:15.359Z,53.27
2023-06-09T12:09:43.907Z,53.29
2023-06-09T12:12:11.858Z,53.69
2023-06-09T12:14:40.360Z,53.82
2023-06-09T12:17:08.065Z,53.76
2023-06-09T12:19:35.580Z,53.55
2023-06-09T12:22:04.590Z,52.49
2023-06-09T12:24:32.857Z,51.84
2023-06-09T12:27:12.413Z,51.37
2023-06-09T12:29:40.601Z,53.26
2023-06-09T12:32:12.164Z,51.70
2023-06-09T12:34:39.812Z,51.15
2023-06-09T12:37:07.914Z,51.84
2023-06-09T12:39:35.568Z,49.94
2023-06-09T12:42:13.891Z,52.36
2023-06-09T12:44:41.526Z,52.97
2023-06-09T12:47:16.093Z,49.73
2023-06-09T12:49:45.659Z,49.65
2023-06-09T12:52:13.095Z,50.68
2023-06-09T12:54:42.252Z,51.15
2023-06-09T12:57:09.829Z,50.56
2023-06-09T12:59:37.910Z,50.91
2023-06-09T13:02:06.898Z,53.34
2023-06-09T13:04:34.414Z,53.44
2023-06-09T13:07:02.477Z,53.38
2023-06-09T13:09:30.040Z,54.70
2023-06-09T13:11:57.653Z,55.20
2023-06-09T13:14:25.210Z,52.45
2023-06-09T13:16:53.508Z,53.33
2023-06-09T13:19:21.522Z,53.22
2023-06-09T13:21:49.066Z,53.90
2023-06-09T13:24:16.622Z,53.70
2023-06-09T13:26:45.074Z,53.10
2023-06-09T13:29:12.599Z,53.79
2023-06-09T13:31:40.154Z,53.04
2023-06-09T13:34:07.569Z,54.30
2023-06-09T13:36:35.368Z,51.75
2023-06-09T13:39:04.014Z,52.70
2023-06-09T13:41:32.125Z,52.51
2023-06-09T13:44:04.807Z,53.19
2023-06-09T13:46:32.820Z,53.91
2023-06-09T13:49:05.306Z,53.60
2023-06-09T13:51:35.387Z,51.89
2023-06-09T13:54:02.884Z,51.96
2023-06-09T13:56:30.360Z,52.67
2023-06-09T13:58:57.997Z,51.99
2023-06-09T14:01:25.521Z,51.49
2023-06-09T14:03:53.397Z,51.50
2023-06-09T14:06:21.226Z,51.17
2023-06-09T14:08:48.719Z,51.66
2023-06-09T14:11:18.549Z,53.43
2023-06-09T14:13:50.165Z,54.21
2023-06-09T14:16:17.685Z,53.81
2023-06-09T14:18:45.464Z,53.75
2023-06-09T14:21:13.899Z,53.75
2023-06-09T14:23:41.814Z,54.24
2023-06-09T14:26:09.409Z,53.22
2023-06-09T14:28:36.872Z,51.50
2023-06-09T14:31:04.364Z,51.86
2023-06-09T14:33:31.823Z,51.99
2023-06-09T14:35:59.476Z,52.96
2023-06-09T14:38:26.901Z,53.80
2023-06-09T14:40:55.033Z,52.67
2023-06-09T14:43:22.580Z,53.80
2023-06-09T14:45:50.033Z,53.21
2023-06-09T14:48:19.862Z,52.33
2023-06-09T14:50:50.616Z,52.70
2023-06-09T14:53:18.586Z,53.01
2023-06-09T14:55:48.584Z,53.53
2023-06-09T14:58:18.134Z,53.42
2023-06-09T15:00:46.873Z,51.92
2023-06-09T15:03:19.420Z,52.05
2023-06-09T15:05:47.524Z,52.35
2023-06-09T15:08:15.128Z,50.74
2023-06-09T15:10:44.539Z,50.38
2023-06-09T15:13:14.241Z,49.55
2023-06-09T15:15:41.916Z,49.00
2023-06-09T15:18:10.669Z,49.05
2023-06-09T15:20:42.308Z,50.21
2023-06-09T15:23:11.810Z,50.21
2023-06-09T15:25:41.720Z,50.69
2023-06-09T15:28:17.689Z,51.11
2023-06-09T15:30:50.161Z,50.60
2023-06-09T15:33:20.525Z,49.81
2023-06-09T15:35:51.058Z,50.15
2023-06-09T15:38:20.576Z,49.87
2023-06-09T15:40:50.465Z,49.69
2023-06-09T15:43:20.499Z,49.36
2023-06-09T15:45:49.969Z,49.35
2023-06-09T15:48:18.080Z,49.74
2023-06-09T15:50:46.822Z,50.73
2023-06-09T15:53:20.453Z,50.77
2023-06-09T15:55:49.225Z,50.84
2023-06-09T15:58:16.942Z,51.06
2023-06-09T16:00:46.240Z,50.31
2023-06-09T16:03:14.089Z,50.25
2023-06-09T16:05:43.211Z,49.80
2023-06-09T16:08:13.350Z,51.05
2023-06-09T16:10:42.454Z,51.96
2023-06-09T16:13:10.811Z,52.13
2023-06-09T16:15:40.295Z,52.39
2023-06-09T16:18:11.891Z,52.38
2023-06-09T16:20:42.876Z,52.40
2023-06-09T16:23:12.701Z,51.91
2023-06-09T16:25:40.350Z,52.23
2023-06-09T16:28:09.258Z,52.94
2023-06-09T16:30:39.668Z,53.25
2023-06-09T16:33:09.409Z,52.61
2023-06-09T16:35:37.992Z,52.26
2023-06-09T16:38:06.860Z,52.08
2023-06-09T16:40:34.559Z,52.07
2023-06-09T16:43:02.514Z,52.17
2023-06-09T16:45:30.367Z,53.07
2023-06-09T16:47:58.795Z,52.12
2023-06-09T16:50:26.632Z,52.47
2023-06-09T16:52:55.508Z,52.22
2023-06-09T16:55:23.335Z,51.99
2023-06-09T16:57:50.939Z,51.13
2023-06-09T17:00:18.924Z,49.93
2023-06-09T17:02:46.628Z,49.32
2023-06-09T17:05:14.340Z,49.56
2023-06-09T17:07:41.796Z,51.27
2023-06-09T17:10:09.604Z,52.39
2023-06-09T17:12:37.172Z,53.52
2023-06-09T17:15:05.182Z,53.58
2023-06-09T17:17:33.415Z,53.22
2023-06-09T17:20:01.402Z,52.36
2023-06-09T17:22:28.956Z,52.45
2023-06-09T17:24:56.495Z,52.53
2023-06-09T17:27:24.226Z,52.62
2023-06-09T17:29:51.691Z,52.32
2023-06-09T17:32:19.175Z,52.88
2023-06-09T17:34:46.701Z,52.40
2023-06-09T17:37:15.609Z,52.38
2023-06-09T17:39:43.520Z,52.95
2023-06-09T17:42:11.912Z,52.70
2023-06-09T17:44:39.407Z,53.00
2023-06-09T17:47:07.117Z,53.05
2023-06-09T17:49:34.716Z,53.19
2023-06-09T17:52:02.287Z,53.47
2023-06-09T17:54:35.760Z,53.66
2023-06-09T17:57:05.584Z,53.72
2023-06-09T17:59:33.126Z,53.40
2023-06-09T18:02:02.638Z,53.78
2023-06-09T18:04:30.121Z,53.97
2023-06-09T18:06:57.854Z,54.36
2023-06-09T18:09:26.090Z,54.67
2023-06-09T18:11:53.652Z,54.85
2023-06-09T18:14:21.119Z,55.25
2023-06-09T18:16:48.558Z,55.56
2023-06-09T18:19:16.152Z,55.96
2023-06-09T18:21:44.334Z,56.32
2023-06-09T18:24:11.976Z,56.87
2023-06-09T18:26:39.729Z,56.72
2023-06-09T18:29:07.530Z,56.82
2023-06-09T18:31:36.116Z,57.36
2023-06-09T18:34:03.998Z,57.63
2023-06-09T18:36:32.861Z,58.22
2023-06-09T18:39:00.488Z,58.16
2023-06-09T18:41:28.197Z,58.66
2023-06-09T18:43:57.516Z,59.46
2023-06-09T18:46:25.054Z,60.04
2023-06-09T18:49:01.247Z,61.04
2023-06-09T18:51:29.417Z,61.50
2023-06-09T18:53:56.955Z,61.18
2023-06-09T18:56:24.735Z,61.34
2023-06-09T18:58:52.354Z,61.52
2023-06-09T19:01:20.862Z,61.71
2023-06-09T19:03:48.724Z,62.02
2023-06-09T19:06:17.069Z,62.54
2023-06-09T19:08:45.748Z,63.04
2023-06-09T19:11:14.290Z,63.68
2023-06-09T19:13:42.102Z,62.91
2023-06-09T19:16:10.217Z,62.94
2023-06-09T19:18:37.851Z,63.20
2023-06-09T19:21:05.488Z,63.21
2023-06-09T19:23:33.078Z,62.84
2023-06-09T19:26:01.893Z,62.96
2023-06-09T19:28:29.443Z,62.70
2023-06-09T19:30:56.956Z,62.92
2023-06-09T19:33:24.565Z,62.85
2023-06-09T19:35:52.830Z,63.20
2023-06-09T19:38:20.453Z,63.48
2023-06-09T19:40:47.933Z,63.42
2023-06-09T19:43:15.437Z,63.35
2023-06-09T19:45:43.632Z,63.95
2023-06-09T19:48:11.464Z,63.84
2023-06-09T19:50:39.148Z,63.38
2023-06-09T19:53:06.726Z,63.52
2023-06-09T19:55:34.185Z,63.52
2023-06-09T19:58:01.686Z,63.32
2023-06-09T20:00:29.159Z,63.76
2023-06-09T20:02:57.174Z,64.22
2023-06-09T20:05:24.614Z,64.44
2023-06-09T20:07:52.069Z,64.65
2023-06-09T20:10:19.479Z,64.92
2023-06-09T20:12:46.892Z,65.34
2023-06-09T20:15:14.879Z,65.69
2023-06-09T20:17:42.451Z,65.91
2023-06-09T20:20:11.203Z,66.05
2023-06-09T20:22:41.788Z,66.09
2023-06-09T20:25:09.997Z,65.82
2023-06-09T20:27:37.895Z,65.11
2023-06-09T20:30:05.946Z,65.11
2023-06-09T20:32:33.417Z,64.42
2023-06-09T20:35:01.401Z,64.75
2023-06-09T20:37:29.467Z,63.99
2023-06-09T20:39:57.575Z,64.35
2023-06-09T20:42:25.053Z,65.37
2023-06-09T20:44:52.973Z,65.67
2023-06-09T20:47:20.690Z,65.93
2023-06-09T20:49:48.313Z,66.42
2023-06-09T20:52:15.738Z,67.07
2023-06-09T20:54:44.464Z,67.64
2023-06-09T20:57:11.946Z,67.48
2023-06-09T20:59:39.687Z,66.94
2023-06-09T21:02:08.461Z,66.30
2023-06-09T21:04:35.872Z,65.74
2023-06-09T21:07:04.247Z,65.59
2023-06-09T21:09:31.669Z,65.22
2023-06-09T21:11:59.132Z,65.08
2023-06-09T21:15:00.293Z,65.17
2023-06-09T21:17:27.831Z,65.77
2023-06-09T21:19:55.328Z,65.71
2023-06-09T21:22:22.767Z,65.77
2023-06-09T21:24:50.992Z,65.82
2023-06-09T21:27:18.399Z,66.25
2023-06-09T21:29:45.944Z,66.20
2023-06-09T21:32:13.458Z,66.36
2023-06-09T21:34:40.943Z,66.04
2023-06-09T21:37:08.380Z,66.11
2023-06-09T21:39:35.899Z,66.13
2023-06-09T21:42:03.817Z,65.94
2023-06-09T21:44:31.261Z,65.38
2023-06-09T21:46:58.803Z,65.33
2023-06-09T21:49:26.291Z,65.12
2023-06-09T21:51:53.819Z,65.91
2023-06-09T21:54:21.310Z,66.17
2023-06-09T21:56:48.751Z,65.73
2023-06-09T21:59:17.167Z,66.18
2023-06-09T22:01:44.720Z,66.41
2023-06-09T22:04:12.442Z,64.76
2023-06-09T22:06:39.949Z,64.28
2023-06-09T22:09:07.539Z,64.00
2023-06-09T22:11:35.834Z,64.30
2023-06-09T22:14:04.728Z,64.56
2023-06-09T22:16:32.193Z,64.87
2023-06-09T22:18:59.684Z,64.68
2023-06-09T22:21:27.136Z,64.05
2023-06-09T22:23:54.703Z,63.66
2023-06-09T22:26:22.465Z,64.88
2023-06-09T22:28:50.067Z,66.54
2023-06-09T22:31:18.235Z,67.17
2023-06-09T22:33:46.460Z,67.33
2023-06-09T22:36:15.715Z,67.97
2023-06-09T22:38:43.207Z,68.79
2023-06-09T22:41:10.896Z,68.77
2023-06-09T22:43:38.385Z,69.25
2023-06-09T22:46:05.938Z,69.40
2023-06-09T22:48:36.512Z,68.15
2023-06-09T22:51:07.698Z,68.04
2023-06-09T22:53:36.173Z,68.70
2023-06-09T22:56:04.007Z,69.01
2023-06-09T22:58:31.555Z,68.20
2023-06-09T23:00:59.097Z,68.73
2023-06-09T23:03:26.653Z,68.36
2023-06-09T23:05:57.527Z,69.19
2023-06-09T23:08:25.190Z,70.43
2023-06-09T23:10:52.716Z,69.52
2023-06-09T23:13:20.223Z,69.77
2023-06-09T23:15:47.694Z,69.77
2023-06-09T23:18:15.380Z,70.33
2023-06-09T23:20:42.896Z,70.65
2023-06-09T23:23:16.092Z,70.43
2023-06-09T23:25:43.658Z,70.66
2023-06-09T23:28:11.227Z,70.67
2023-06-09T23:30:38.674Z,71.09
2023-06-09T23:33:06.495Z,71.57
2023-06-09T23:35:35.238Z,71.84
2023-06-09T23:38:03.044Z,71.26
2023-06-09T23:40:30.673Z,71.52
2023-06-09T23:42:58.123Z,71.96
2023-06-09T23:45:25.896Z,72.36
2023-06-09T23:47:53.627Z,73.10
2023-06-09T23:50:21.886Z,73.75
2023-06-09T23:52:49.400Z,74.07
2023-06-09T23:55:16.976Z,74.28
2023-06-09T23:57:44.484Z,74.83
